Overview Statistics Trail Chart Weather Telemetry Raw packets
 

This is the latest recevied weather packets stored in our database for station/object DB7GV-8. If no packets are shown the sender has not sent any weather packets the latest 10 day(s).

<< 28 29 30 31 32 33 34 >>
Time Temp. Humidity Pressure Rain* Wind** Luminosity Snow
1777033151 25.56° C 18% 1019.7 hPa - - - -
1777032246 26.11° C 19% 1019.8 hPa - - - -
1777031340 25.56° C 19% 1019.8 hPa - - - -
1777030435 26.11° C 20% 1020 hPa - - - -
1777029529 26.11° C 20% 1020.1 hPa - - - -
1777028624 26.11° C 19% 1020.3 hPa - - - -
1777027719 25.56° C 20% 1020.4 hPa - - - -
1777026813 25.56° C 19% 1020.5 hPa - - - -
1777025907 25.56° C 18% 1020.6 hPa - - - -
1777025002 25.56° C 19% 1020.8 hPa - - - -
1777024096 25° C 20% 1020.9 hPa - - - -
1777023191 25° C 21% 1020.9 hPa - - - -
1777022286 24.44° C 20% 1021 hPa - - - -
1777021381 23.89° C 22% 1021 hPa - - - -
1777019576 23.33° C 23% 1021.1 hPa - - - -
1777018664 24.44° C 19% 1021.1 hPa - - - -
1777017759 41.67° C 11% 1021.3 hPa - - - -
1777016853 40.56° C 12% 1021.4 hPa - - - -
1777015948 38.33° C 15% 1021.5 hPa - - - -
1777015042 19.44° C 27% 1021.4 hPa - - - -
1777014137 35.56° C 17% 1021.8 hPa - - - -
1777013232 32.78° C 22% 1022.2 hPa - - - -
1777012326 18.89° C 53% 1022.4 hPa - - - -
1777011420 3.89° C 72% 1022.3 hPa - - - -
1777010515 3.33° C 73% 1022.5 hPa - - - -

* Rain since midnight (hover to see other rain measurements)
** Current wind speed in m/s (hover to see current wind gust speed)